createdAt,value
2023-11-12T00:00:12.725Z,9.57
2023-11-12T00:02:39.539Z,8.00
2023-11-12T00:05:06.412Z,7.28
2023-11-12T00:07:33.002Z,8.27
2023-11-12T00:09:59.650Z,9.65
2023-11-12T00:12:28.513Z,7.03
2023-11-12T00:14:55.231Z,8.05
2023-11-12T00:17:21.859Z,10.25
2023-11-12T00:19:48.733Z,8.07
2023-11-12T00:22:15.356Z,10.35
2023-11-12T00:24:41.988Z,11.23
2023-11-12T00:27:08.564Z,7.88
2023-11-12T00:29:35.279Z,7.93
2023-11-12T00:32:05.234Z,8.73
2023-11-12T00:34:32.144Z,9.23
2023-11-12T00:36:58.693Z,9.55
2023-11-12T00:39:25.364Z,6.95
2023-11-12T00:41:51.895Z,11.07
2023-11-12T00:44:18.807Z,7.10
2023-11-12T00:46:45.580Z,8.63
2023-11-12T00:49:12.134Z,8.15
2023-11-12T00:51:38.749Z,9.93
2023-11-12T00:54:05.517Z,8.80
2023-11-12T00:56:33.185Z,11.25
2023-11-12T00:58:59.838Z,9.00
2023-11-12T01:01:26.462Z,9.18
2023-11-12T01:03:53.202Z,8.35
2023-11-12T01:06:19.808Z,10.93
2023-11-12T01:08:47.013Z,8.82
2023-11-12T01:11:13.623Z,8.65
2023-11-12T01:13:40.251Z,8.93
2023-11-12T01:16:07.170Z,9.23
2023-11-12T01:18:35.307Z,11.52
2023-11-12T01:21:03.465Z,7.60
2023-11-12T01:23:30.254Z,9.57
2023-11-12T01:25:56.764Z,8.02
2023-11-12T01:28:24.640Z,7.72
2023-11-12T01:30:51.174Z,7.63
2023-11-12T01:33:20.388Z,7.05
2023-11-12T01:38:13.581Z,8.15
2023-11-12T01:40:42.389Z,7.82
2023-11-12T01:43:08.947Z,7.72
2023-11-12T01:45:35.625Z,9.77
2023-11-12T01:48:03.328Z,8.75
2023-11-12T01:50:30.445Z,7.45
2023-11-12T01:52:58.071Z,8.82
2023-11-12T01:55:26.627Z,7.72
2023-11-12T01:57:54.566Z,8.80
2023-11-12T02:00:23.392Z,7.35
2023-11-12T02:02:53.083Z,8.60
2023-11-12T02:05:21.423Z,9.20
2023-11-12T02:07:49.794Z,9.40
2023-11-12T02:10:17.926Z,9.43
2023-11-12T02:12:48.329Z,6.32
2023-11-12T02:15:18.536Z,7.97
2023-11-12T02:17:46.527Z,9.05
2023-11-12T02:20:17.799Z,11.98
2023-11-12T02:22:45.170Z,9.27
2023-11-12T02:25:12.139Z,7.57
2023-11-12T02:27:40.274Z,8.20
2023-11-12T02:30:11.220Z,8.52
2023-11-12T02:32:39.079Z,7.32
2023-11-12T02:35:08.946Z,7.85
2023-11-12T02:37:36.662Z,7.10
2023-11-12T02:40:03.751Z,9.40
2023-11-12T02:42:30.862Z,8.10
2023-11-12T02:45:01.091Z,8.73
2023-11-12T02:47:28.378Z,10.23
2023-11-12T02:50:18.398Z,8.00
2023-11-12T02:52:44.940Z,12.20
2023-11-12T02:55:11.495Z,6.38
2023-11-12T02:57:38.048Z,7.38
2023-11-12T03:00:05.358Z,8.60
2023-11-12T03:02:33.680Z,9.02
2023-11-12T03:05:00.386Z,8.30
2023-11-12T03:07:26.907Z,9.00
2023-11-12T03:09:53.994Z,7.88
2023-11-12T03:12:20.862Z,7.00
2023-11-12T03:14:47.494Z,7.68
2023-11-12T03:17:14.184Z,8.68
2023-11-12T03:19:40.846Z,8.32
2023-11-12T03:22:10.046Z,7.80
2023-11-12T03:27:04.719Z,6.97
2023-11-12T03:29:31.349Z,9.00
2023-11-12T03:31:59.136Z,8.77
2023-11-12T03:34:26.139Z,7.13
2023-11-12T03:36:55.501Z,9.73
2023-11-12T03:41:48.459Z,6.53
2023-11-12T03:44:15.855Z,10.40
2023-11-12T03:46:42.459Z,7.10
2023-11-12T03:49:08.986Z,7.72
2023-11-12T03:51:36.337Z,7.28
2023-11-12T03:54:03.433Z,8.32
2023-11-12T03:56:31.026Z,6.57
2023-11-12T03:58:58.299Z,8.88
2023-11-12T04:01:25.547Z,7.57
2023-11-12T04:03:52.624Z,10.48
2023-11-12T04:06:19.710Z,7.47
2023-11-12T04:08:46.270Z,7.07
2023-11-12T04:11:13.425Z,7.40
2023-11-12T04:13:40.066Z,9.13
2023-11-12T04:16:07.330Z,6.82
2023-11-12T04:18:35.998Z,9.50
2023-11-12T04:21:03.477Z,8.15
2023-11-12T04:23:30.122Z,7.50
2023-11-12T04:25:56.627Z,8.00
2023-11-12T04:28:27.946Z,12.20
2023-11-12T04:30:55.098Z,6.93
2023-11-12T04:33:21.766Z,9.70
2023-11-12T04:35:51.447Z,7.68
2023-11-12T04:38:18.260Z,8.38
2023-11-12T04:40:48.201Z,7.95
2023-11-12T04:43:15.744Z,8.27
2023-11-12T04:45:43.221Z,9.07
2023-11-12T04:48:10.655Z,10.32
2023-11-12T04:50:38.234Z,7.40
2023-11-12T04:53:06.193Z,7.72
2023-11-12T04:55:32.944Z,7.13
2023-11-12T04:57:59.823Z,8.75
2023-11-12T05:00:26.802Z,8.27
2023-11-12T05:02:53.497Z,6.68
2023-11-12T05:05:20.290Z,7.18
2023-11-12T05:07:47.228Z,6.40
2023-11-12T05:10:15.069Z,8.50
2023-11-12T05:12:41.917Z,6.05
2023-11-12T05:15:12.107Z,8.15
2023-11-12T05:17:38.698Z,8.18
2023-11-12T05:20:06.156Z,8.52
2023-11-12T05:22:35.534Z,7.03
2023-11-12T05:25:02.127Z,8.55
2023-11-12T05:27:28.711Z,7.72
2023-11-12T05:29:55.246Z,6.97
2023-11-12T05:32:21.813Z,9.70
2023-11-12T05:34:48.341Z,7.28
2023-11-12T05:37:14.948Z,8.23
2023-11-12T05:39:41.765Z,6.13
2023-11-12T05:42:09.226Z,7.82
2023-11-12T05:44:35.952Z,9.32
2023-11-12T05:47:02.641Z,6.47
2023-11-12T05:49:29.184Z,10.48
2023-11-12T05:51:55.679Z,7.40
2023-11-12T05:54:22.221Z,9.07
2023-11-12T05:56:48.837Z,8.10
2023-11-12T05:59:15.584Z,7.80
2023-11-12T06:01:42.107Z,8.70
2023-11-12T06:04:09.170Z,6.65
2023-11-12T06:06:35.734Z,6.72
2023-11-12T06:09:02.282Z,8.18
2023-11-12T06:11:28.958Z,6.35
2023-11-12T06:13:55.603Z,6.20
2023-11-12T06:16:22.180Z,6.80
2023-11-12T06:18:49.897Z,6.85
2023-11-12T06:21:16.691Z,10.52
2023-11-12T06:23:45.241Z,6.68
2023-11-12T06:26:12.232Z,5.95
2023-11-12T06:28:39.176Z,6.22
2023-11-12T06:31:06.323Z,8.38
2023-11-12T06:33:33.031Z,8.50
2023-11-12T06:35:59.888Z,6.72
2023-11-12T06:38:26.685Z,6.78
2023-11-12T06:40:53.448Z,8.00
2023-11-12T06:43:19.965Z,7.85
2023-11-12T06:45:46.548Z,13.30
2023-11-12T06:48:13.150Z,12.18
2023-11-12T06:50:40.333Z,9.02
2023-11-12T06:53:06.977Z,8.00
2023-11-12T06:55:34.593Z,8.55
2023-11-12T06:58:01.314Z,8.52
2023-11-12T07:00:28.325Z,8.27
2023-11-12T07:02:55.844Z,7.93
2023-11-12T07:05:22.541Z,7.10
2023-11-12T07:07:49.515Z,6.03
2023-11-12T07:10:16.245Z,9.65
2023-11-12T07:12:43.978Z,9.50
2023-11-12T07:15:10.904Z,8.40
2023-11-12T07:17:37.634Z,6.93
2023-11-12T07:20:07.522Z,7.05
2023-11-12T07:22:37.032Z,7.18
2023-11-12T07:25:04.781Z,6.72
2023-11-12T07:27:33.265Z,6.13
2023-11-12T07:30:00.839Z,7.55
2023-11-12T07:32:27.442Z,9.40
2023-11-12T07:34:54.051Z,7.97
2023-11-12T07:37:20.920Z,9.55
2023-11-12T07:39:47.576Z,8.00
2023-11-12T07:42:14.329Z,6.93
2023-11-12T07:44:41.013Z,7.22
2023-11-12T07:47:07.736Z,6.30
2023-11-12T07:49:34.324Z,6.82
2023-11-12T07:52:01.816Z,9.82
2023-11-12T07:54:28.612Z,7.78
2023-11-12T07:56:59.141Z,5.35
2023-11-12T07:59:25.676Z,5.68
2023-11-12T08:01:52.279Z,5.55
2023-11-12T08:04:19.007Z,5.30
2023-11-12T08:06:47.563Z,8.75
2023-11-12T08:09:15.383Z,5.38
2023-11-12T08:11:43.350Z,8.15
2023-11-12T08:14:12.850Z,5.25
2023-11-12T08:16:39.555Z,6.03
2023-11-12T08:19:07.132Z,5.35
2023-11-12T08:21:33.781Z,8.57
2023-11-12T08:24:00.402Z,7.20
2023-11-12T08:26:30.761Z,6.13
2023-11-12T08:28:58.637Z,5.47
2023-11-12T08:31:27.189Z,5.55
2023-11-12T08:33:54.177Z,5.07
2023-11-12T08:36:20.939Z,5.40
2023-11-12T08:38:48.605Z,4.95
2023-11-12T08:41:15.195Z,5.63
2023-11-12T08:43:45.368Z,6.03
2023-11-12T08:46:13.098Z,8.00
2023-11-12T08:48:44.180Z,5.43
2023-11-12T08:51:11.970Z,7.38
2023-11-12T08:53:40.565Z,5.28
2023-11-12T08:56:08.814Z,4.38
2023-11-12T08:58:35.999Z,5.03
2023-11-12T09:01:04.850Z,5.47
2023-11-12T09:03:32.348Z,4.53
2023-11-12T09:05:58.989Z,6.15
2023-11-12T09:08:25.631Z,6.90
2023-11-12T09:10:52.521Z,4.80
2023-11-12T09:13:19.145Z,8.35
2023-11-12T09:15:45.721Z,6.70
2023-11-12T09:18:13.403Z,4.68
2023-11-12T09:20:40.062Z,5.00
2023-11-12T09:23:06.667Z,5.07
2023-11-12T09:25:33.280Z,7.03
2023-11-12T09:28:00.061Z,5.65
2023-11-12T09:30:33.797Z,5.07
2023-11-12T09:33:07.693Z,6.30
2023-11-12T09:35:34.408Z,4.95
2023-11-12T09:38:00.935Z,3.47
2023-11-12T09:40:31.097Z,6.65
2023-11-12T09:42:58.293Z,4.88
2023-11-12T09:45:26.948Z,6.57
2023-11-12T09:47:54.486Z,6.85
2023-11-12T09:50:28.264Z,6.35
2023-11-12T09:52:56.321Z,5.72
2023-11-12T09:55:23.100Z,5.95
2023-11-12T09:57:52.445Z,7.13
2023-11-12T10:00:19.618Z,5.28
2023-11-12T10:02:46.343Z,6.90
2023-11-12T10:05:14.323Z,4.18
2023-11-12T10:07:42.829Z,5.15
2023-11-12T10:10:22.040Z,5.25
2023-11-12T10:12:49.491Z,6.30
2023-11-12T10:15:23.741Z,6.10
2023-11-12T10:17:52.225Z,6.07
2023-11-12T10:20:29.266Z,5.80
2023-11-12T10:22:55.951Z,6.22
2023-11-12T10:25:51.894Z,6.07
2023-11-12T10:28:18.515Z,5.97
2023-11-12T10:30:47.727Z,7.18
2023-11-12T10:33:18.469Z,5.05
2023-11-12T10:35:48.702Z,4.47
2023-11-12T10:38:19.400Z,5.97
2023-11-12T10:40:59.649Z,7.22
2023-11-12T10:43:26.583Z,6.82
2023-11-12T10:45:59.710Z,5.65
2023-11-12T10:48:35.042Z,5.07
2023-11-12T10:51:04.395Z,5.85
2023-11-12T10:53:32.922Z,5.90
2023-11-12T10:56:03.273Z,5.43
2023-11-12T10:58:31.146Z,6.30
2023-11-12T11:01:00.531Z,4.10
2023-11-12T11:03:31.891Z,4.95
2023-11-12T11:06:04.265Z,5.72
2023-11-12T11:08:32.271Z,5.72
2023-11-12T11:11:00.973Z,6.35
2023-11-12T11:13:28.406Z,6.20
2023-11-12T11:15:57.534Z,4.50
2023-11-12T11:18:33.306Z,5.03
2023-11-12T11:21:16.742Z,4.28
2023-11-12T11:23:50.809Z,5.45
2023-11-12T11:26:33.349Z,3.42
2023-11-12T11:29:06.264Z,3.95
2023-11-12T11:31:33.757Z,3.92
2023-11-12T11:34:01.815Z,5.60
2023-11-12T11:36:28.581Z,3.88
2023-11-12T11:39:09.232Z,5.82
2023-11-12T11:41:57.145Z,5.25
2023-11-12T11:44:43.191Z,4.80
2023-11-12T11:47:24.747Z,3.80
2023-11-12T11:49:57.927Z,4.95
2023-11-12T11:52:29.582Z,5.53
2023-11-12T11:54:57.291Z,5.22
2023-11-12T11:57:28.634Z,5.88
2023-11-12T11:59:56.895Z,5.63
2023-11-12T12:02:24.848Z,5.20
2023-11-12T12:04:58.634Z,5.93
2023-11-12T12:07:27.855Z,5.70
2023-11-12T12:09:59.264Z,4.30
2023-11-12T12:12:27.554Z,5.68
2023-11-12T12:14:55.909Z,4.80
2023-11-12T12:17:23.415Z,6.53
2023-11-12T12:19:54.308Z,5.95
2023-11-12T12:22:28.066Z,5.63
2023-11-12T12:24:57.509Z,6.25
2023-11-12T12:27:25.237Z,6.28
2023-11-12T12:29:53.714Z,5.65
2023-11-12T12:32:21.461Z,6.03
2023-11-12T12:35:01.353Z,8.05
2023-11-12T12:37:30.419Z,8.07
2023-11-12T12:40:28.884Z,6.13
2023-11-12T12:42:55.893Z,4.63
2023-11-12T12:45:22.741Z,7.13
2023-11-12T12:47:49.570Z,8.02
2023-11-12T12:50:29.614Z,8.18
2023-11-12T12:53:16.555Z,6.60
2023-11-12T12:55:44.849Z,6.95
2023-11-12T12:58:12.190Z,4.93
2023-11-12T13:00:44.264Z,5.55
2023-11-12T13:03:24.867Z,5.22
2023-11-12T13:05:52.371Z,7.05
2023-11-12T13:08:20.853Z,9.32
2023-11-12T13:10:49.343Z,8.43
2023-11-12T13:13:20.232Z,7.50
2023-11-12T13:15:48.099Z,7.50
2023-11-12T13:18:15.405Z,7.35
2023-11-12T13:20:44.027Z,7.70
2023-11-12T13:23:10.893Z,8.85
2023-11-12T13:25:37.978Z,7.95
2023-11-12T13:28:08.907Z,7.85
2023-11-12T13:30:37.390Z,5.60
2023-11-12T13:33:05.256Z,6.55
2023-11-12T13:35:31.981Z,10.35
2023-11-12T13:37:58.549Z,6.47
2023-11-12T13:40:25.455Z,8.60
2023-11-12T13:42:52.202Z,6.10
2023-11-12T13:45:21.710Z,9.90
2023-11-12T13:47:48.578Z,8.32
2023-11-12T13:50:17.481Z,7.43
2023-11-12T13:55:12.514Z,6.75
2023-11-12T13:57:39.257Z,5.95
2023-11-12T14:00:11.904Z,7.72
2023-11-12T14:02:39.488Z,5.95
2023-11-12T14:05:12.037Z,7.10
2023-11-12T14:07:42.485Z,8.45
2023-11-12T14:10:11.455Z,7.38
2023-11-12T14:12:39.236Z,7.35
2023-11-12T14:15:10.305Z,8.20
2023-11-12T14:17:37.439Z,5.75
2023-11-12T14:20:07.480Z,9.88
2023-11-12T14:22:35.529Z,6.65
2023-11-12T14:25:06.771Z,9.85
2023-11-12T14:27:34.154Z,10.38
2023-11-12T14:30:00.682Z,5.82
2023-11-12T14:32:27.300Z,10.38
2023-11-12T14:34:55.062Z,15.60
2023-11-12T14:37:22.887Z,19.15
2023-11-12T14:39:50.868Z,28.45
2023-11-12T14:42:17.487Z,40.25
2023-11-12T14:44:44.032Z,29.00
2023-11-12T14:47:11.008Z,25.48
2023-11-12T14:49:37.682Z,12.07
2023-11-12T14:52:06.260Z,10.45
2023-11-12T14:54:33.947Z,9.27
2023-11-12T14:57:00.571Z,8.07
2023-11-12T14:59:28.730Z,9.93
2023-11-12T15:01:55.695Z,9.80
2023-11-12T15:04:23.444Z,8.45
2023-11-12T15:06:53.025Z,7.60
2023-11-12T15:09:22.450Z,8.32
2023-11-12T15:11:48.970Z,8.95
2023-11-12T15:14:16.345Z,6.57
2023-11-12T15:16:43.080Z,8.30
2023-11-12T15:19:12.080Z,7.13
2023-11-12T15:24:14.386Z,7.88
2023-11-12T15:26:42.875Z,8.57
2023-11-12T15:29:09.442Z,7.68
2023-11-12T15:31:36.557Z,6.53
2023-11-12T15:34:05.921Z,6.90
2023-11-12T15:36:34.624Z,6.50
2023-11-12T15:39:01.843Z,9.85
2023-11-12T15:41:28.617Z,6.28
2023-11-12T15:43:56.488Z,6.00
2023-11-12T15:46:23.659Z,10.80
2023-11-12T15:48:50.452Z,8.45
2023-11-12T15:51:18.374Z,11.88
2023-11-12T15:53:45.346Z,7.18
2023-11-12T15:56:14.663Z,8.15
2023-11-12T15:58:42.332Z,6.85
2023-11-12T16:01:09.337Z,9.85
2023-11-12T16:03:38.013Z,8.13
2023-11-12T16:06:06.513Z,5.15
2023-11-12T16:08:33.229Z,5.55
2023-11-12T16:10:59.853Z,5.55
2023-11-12T16:13:26.986Z,5.65
2023-11-12T16:15:53.583Z,5.55
2023-11-12T16:18:20.491Z,5.45
2023-11-12T16:20:47.260Z,5.75
2023-11-12T16:23:13.867Z,7.55
2023-11-12T16:25:40.474Z,4.82
2023-11-12T16:28:07.069Z,4.40
2023-11-12T16:30:33.804Z,5.68
2023-11-12T16:33:00.647Z,6.85
2023-11-12T16:35:27.371Z,7.65
2023-11-12T16:37:56.419Z,7.97
2023-11-12T16:40:23.578Z,8.48
2023-11-12T16:42:50.521Z,5.60
2023-11-12T16:45:18.510Z,7.78
2023-11-12T16:47:45.678Z,9.68
2023-11-12T16:50:15.720Z,6.03
2023-11-12T16:52:43.237Z,6.15
2023-11-12T16:55:11.169Z,6.63
2023-11-12T16:57:40.458Z,6.03
2023-11-12T17:00:08.396Z,5.18
2023-11-12T17:02:36.570Z,5.82
2023-11-12T17:05:04.934Z,4.28
2023-11-12T17:07:31.904Z,8.38
2023-11-12T17:10:03.270Z,7.03
2023-11-12T17:12:30.063Z,6.32
2023-11-12T17:15:01.034Z,6.03
2023-11-12T17:17:27.760Z,4.97
2023-11-12T17:19:54.489Z,7.25
2023-11-12T17:22:22.286Z,7.10
2023-11-12T17:24:50.060Z,5.13
2023-11-12T17:27:17.767Z,4.82
2023-11-12T17:29:44.648Z,7.55
2023-11-12T17:32:11.253Z,10.63
2023-11-12T17:34:37.930Z,6.45
2023-11-12T17:37:04.544Z,6.93
2023-11-12T17:39:31.234Z,5.85
2023-11-12T17:41:58.906Z,6.60
2023-11-12T17:44:26.032Z,8.63
2023-11-12T17:46:52.677Z,10.07
2023-11-12T17:49:19.540Z,6.75
2023-11-12T17:51:47.612Z,9.45
2023-11-12T17:54:16.986Z,10.65
2023-11-12T17:56:43.631Z,6.50
2023-11-12T17:59:10.199Z,8.13
2023-11-12T18:01:37.624Z,5.40
2023-11-12T18:04:05.362Z,8.15
2023-11-12T18:06:34.150Z,6.18
2023-11-12T18:09:01.968Z,7.88
2023-11-12T18:11:31.962Z,8.02
2023-11-12T18:14:01.063Z,8.10
2023-11-12T18:18:56.838Z,9.02
2023-11-12T18:21:23.723Z,7.32
2023-11-12T18:23:50.787Z,7.47
2023-11-12T18:26:18.902Z,10.18
2023-11-12T18:28:45.678Z,8.30
2023-11-12T18:31:17.654Z,10.43
2023-11-12T18:33:44.445Z,7.82
2023-11-12T18:36:11.346Z,7.03
2023-11-12T18:38:37.963Z,6.80
2023-11-12T18:41:06.467Z,7.97
2023-11-12T18:43:33.118Z,6.55
2023-11-12T18:46:04.547Z,6.88
2023-11-12T18:48:31.602Z,7.45
2023-11-12T18:50:58.315Z,6.35
2023-11-12T18:53:25.028Z,7.82
2023-11-12T18:55:51.804Z,7.97
2023-11-12T18:58:18.389Z,7.93
2023-11-12T19:00:45.137Z,8.02
2023-11-12T19:03:12.034Z,10.48
2023-11-12T19:05:39.030Z,9.65
2023-11-12T19:08:07.472Z,8.23
2023-11-12T19:10:34.243Z,8.02
2023-11-12T19:13:00.861Z,6.50
2023-11-12T19:15:27.440Z,8.55
2023-11-12T19:17:54.145Z,9.15
2023-11-12T19:20:21.148Z,11.07
2023-11-12T19:22:48.170Z,9.25
2023-11-12T19:25:17.743Z,7.45
2023-11-12T19:27:45.334Z,8.05
2023-11-12T19:30:15.598Z,9.35
2023-11-12T19:32:44.202Z,10.85
2023-11-12T19:35:11.078Z,11.73
2023-11-12T19:37:38.757Z,7.75
2023-11-12T19:40:07.342Z,8.40
2023-11-12T19:42:33.973Z,9.35
2023-11-12T19:45:00.681Z,9.90
2023-11-12T19:47:29.891Z,9.18
2023-11-12T19:49:58.307Z,10.93
2023-11-12T19:52:24.900Z,10.82
2023-11-12T19:54:51.529Z,10.77
2023-11-12T19:57:18.168Z,8.50
2023-11-12T19:59:44.775Z,7.95
2023-11-12T20:02:11.627Z,8.93
2023-11-12T20:04:38.446Z,8.93
2023-11-12T20:07:05.577Z,10.38
2023-11-12T20:09:32.730Z,10.18
2023-11-12T20:12:01.973Z,10.68
2023-11-12T20:16:59.367Z,7.55
2023-11-12T20:19:28.942Z,9.70
2023-11-12T20:21:57.162Z,7.90
2023-11-12T20:24:24.037Z,9.70
2023-11-12T20:26:52.415Z,9.38
2023-11-12T20:29:23.051Z,10.35
2023-11-12T20:31:55.520Z,12.27
2023-11-12T20:34:23.681Z,10.95
2023-11-12T20:36:51.924Z,10.60
2023-11-12T20:39:18.914Z,8.95
2023-11-12T20:41:46.633Z,10.98
2023-11-12T20:44:14.400Z,9.00
2023-11-12T20:46:45.499Z,9.75
2023-11-12T20:49:19.502Z,9.27
2023-11-12T20:52:10.753Z,8.98
2023-11-12T20:54:40.509Z,9.13
2023-11-12T20:57:07.711Z,9.52
2023-11-12T20:59:34.500Z,8.15
2023-11-12T21:02:10.048Z,9.73
2023-11-12T21:04:44.919Z,7.85
2023-11-12T21:07:13.802Z,10.80
2023-11-12T21:09:40.760Z,11.02
2023-11-12T21:12:07.907Z,10.20
2023-11-12T21:14:34.682Z,7.72
2023-11-12T21:17:02.656Z,11.43
2023-11-12T21:19:29.318Z,8.52
2023-11-12T21:21:57.222Z,9.32
2023-11-12T21:24:23.994Z,9.10
2023-11-12T21:26:50.946Z,9.95
2023-11-12T21:29:17.473Z,11.02
2023-11-12T21:31:47.280Z,8.40
2023-11-12T21:34:16.730Z,8.55
2023-11-12T21:36:43.328Z,10.32
2023-11-12T21:39:12.436Z,9.52
2023-11-12T21:44:08.751Z,8.82
2023-11-12T21:46:35.770Z,9.10
2023-11-12T21:49:02.538Z,8.88
2023-11-12T21:51:31.641Z,10.45
2023-11-12T21:53:58.297Z,11.63
2023-11-12T21:56:25.279Z,9.32
2023-11-12T21:58:51.781Z,11.65
2023-11-12T22:01:18.395Z,9.23
2023-11-12T22:03:45.166Z,7.43
2023-11-12T22:06:12.633Z,7.53
2023-11-12T22:08:39.249Z,7.78
2023-11-12T22:11:06.457Z,9.88
2023-11-12T22:13:33.571Z,10.48
2023-11-12T22:16:00.351Z,7.03
2023-11-12T22:18:27.191Z,8.45
2023-11-12T22:20:57.488Z,8.98
2023-11-12T22:23:24.057Z,10.52
2023-11-12T22:25:51.290Z,10.00
2023-11-12T22:28:18.002Z,9.70
2023-11-12T22:30:44.720Z,10.60
2023-11-12T22:33:11.327Z,13.98
2023-11-12T22:35:38.001Z,8.40
2023-11-12T22:38:04.758Z,7.70
2023-11-12T22:40:31.362Z,8.52
2023-11-12T22:43:00.158Z,8.60
2023-11-12T22:45:26.815Z,8.70
2023-11-12T22:47:53.836Z,7.53
2023-11-12T22:50:22.479Z,8.63
2023-11-12T22:52:49.144Z,8.35
2023-11-12T22:55:16.137Z,8.02
2023-11-12T22:57:44.829Z,8.32
2023-11-12T23:00:17.748Z,11.50
2023-11-12T23:02:45.860Z,8.65
2023-11-12T23:05:13.978Z,7.90
2023-11-12T23:07:41.112Z,10.98
2023-11-12T23:10:08.647Z,7.22
2023-11-12T23:12:35.439Z,6.20
2023-11-12T23:15:01.989Z,8.52
2023-11-12T23:17:28.588Z,9.07
2023-11-12T23:19:55.149Z,8.75
2023-11-12T23:22:21.921Z,9.27
2023-11-12T23:24:48.690Z,7.75
2023-11-12T23:27:15.347Z,8.52
2023-11-12T23:29:46.108Z,7.15
2023-11-12T23:32:12.692Z,8.88
2023-11-12T23:34:39.241Z,9.02
2023-11-12T23:37:07.881Z,6.93
2023-11-12T23:39:34.635Z,6.50
2023-11-12T23:42:01.247Z,8.15
2023-11-12T23:44:27.851Z,8.32
2023-11-12T23:46:54.527Z,8.50
2023-11-12T23:49:21.298Z,8.07
2023-11-12T23:51:47.902Z,7.60
2023-11-12T23:54:14.496Z,7.95
2023-11-12T23:56:41.104Z,6.90
2023-11-12T23:59:07.689Z,9.65
